Terminal Aerodrome Forecast
Issued by NWS Brownsville, TX

Home | Current Version | Previous Version | Text Only | Print | Product List | Glossary On
Versions: 1 2 3 4 5 6 7 8 9 10 11 12 13 14 15 16 17 18
000
FTUS44 KBRO 210500 RRA
TAFHRL
TAF
KHRL 210559Z 2106/2206 16016G20KT P6SM BKN021
     FM211300 16011KT P6SM FEW030
     FM211500 17019KT P6SM SCT050=

USA.gov is the U.S. government's official web portal to all federal, state and local government web resources and services.